createdAt,value
2024-04-24T00:02:39.798Z,8.77
2024-04-24T00:12:42.052Z,8.73
2024-04-24T00:22:44.001Z,8.69
2024-04-24T00:32:45.879Z,8.76
2024-04-24T00:42:47.899Z,8.77
2024-04-24T00:52:50.687Z,8.60
2024-04-24T01:02:53.130Z,8.56
2024-04-24T01:12:55.101Z,8.47
2024-04-24T01:23:15.035Z,8.44
2024-04-24T01:33:18.177Z,8.42
2024-04-24T01:43:19.993Z,8.22
2024-04-24T01:53:22.132Z,8.28
2024-04-24T02:03:24.198Z,8.19
2024-04-24T02:13:26.028Z,8.06
2024-04-24T02:23:32.634Z,8.04
2024-04-24T02:33:34.836Z,8.13
2024-04-24T02:43:36.967Z,7.92
2024-04-24T02:53:39.023Z,7.96
2024-04-24T03:03:41.174Z,7.84
2024-04-24T03:13:42.924Z,7.89
2024-04-24T03:23:44.648Z,7.89
2024-04-24T03:33:46.438Z,7.94
2024-04-24T03:43:48.187Z,7.90
2024-04-24T03:53:49.996Z,7.90
2024-04-24T04:03:52.333Z,7.72
2024-04-24T04:13:55.297Z,7.72
2024-04-24T04:23:57.224Z,7.86
2024-04-24T04:33:59.281Z,7.85
2024-04-24T04:44:01.352Z,7.92
2024-04-24T04:54:03.321Z,7.82
2024-04-24T05:04:05.792Z,7.85
2024-04-24T05:14:07.814Z,7.82
2024-04-24T05:24:09.903Z,7.88
2024-04-24T05:34:11.803Z,7.74
2024-04-24T05:44:14.018Z,7.54
2024-04-24T05:54:16.227Z,7.71
2024-04-24T06:04:18.066Z,7.70
2024-04-24T06:14:19.939Z,7.74
2024-04-24T06:24:21.915Z,7.63
2024-04-24T06:34:24.064Z,7.76
2024-04-24T06:44:26.188Z,7.74
2024-04-24T06:54:28.052Z,7.50
2024-04-24T07:04:30.064Z,7.77
2024-04-24T07:14:32.278Z,7.85
2024-04-24T07:24:34.112Z,7.76
2024-04-24T07:34:36.309Z,7.78
2024-04-24T07:44:38.261Z,7.86
2024-04-24T07:54:40.129Z,7.91
2024-04-24T08:04:43.740Z,8.00
2024-04-24T08:14:45.581Z,8.17
2024-04-24T08:24:47.400Z,8.10
2024-04-24T08:34:49.223Z,8.09
2024-04-24T08:44:52.797Z,8.19
2024-04-24T08:54:59.205Z,8.17
2024-04-24T09:05:02.529Z,8.31
2024-04-24T09:15:05.207Z,8.15
2024-04-24T09:25:07.350Z,8.24
2024-04-24T09:35:09.201Z,8.27
2024-04-24T09:45:11.499Z,8.35
2024-04-24T09:55:13.521Z,8.40
2024-04-24T10:05:33.362Z,8.41
2024-04-24T10:15:44.604Z,8.60
2024-04-24T10:25:48.541Z,8.63
2024-04-24T10:35:50.694Z,8.60
2024-04-24T10:45:57.346Z,8.69
2024-04-24T10:56:03.887Z,8.85
2024-04-24T11:06:14.521Z,8.93
2024-04-24T11:16:16.545Z,9.14
2024-04-24T11:26:18.958Z,9.25
2024-04-24T11:36:21.290Z,9.38
2024-04-24T11:46:24.540Z,9.54
2024-04-24T11:56:26.572Z,9.87
2024-04-24T12:06:29.823Z,9.53
2024-04-24T12:16:31.639Z,9.89
2024-04-24T12:26:33.693Z,9.80
2024-04-24T12:36:39.387Z,9.91
2024-04-24T12:46:41.478Z,10.16
2024-04-24T12:56:43.289Z,10.07
2024-04-24T13:06:45.241Z,10.37
2024-04-24T13:16:47.302Z,10.59
2024-04-24T13:26:49.424Z,10.80
2024-04-24T13:36:51.510Z,10.99
2024-04-24T13:46:53.984Z,11.18
2024-04-24T13:56:56.777Z,11.32
2024-04-24T14:06:58.895Z,11.10
2024-04-24T14:17:00.833Z,11.06
2024-04-24T14:27:02.702Z,11.35
2024-04-24T14:37:06.220Z,11.36
2024-04-24T14:47:08.267Z,11.08
2024-04-24T14:57:10.787Z,11.25
2024-04-24T15:07:14.286Z,10.80
2024-04-24T15:17:16.350Z,10.73
2024-04-24T15:27:18.264Z,10.04
2024-04-24T15:37:20.222Z,9.44
2024-04-24T15:47:22.884Z,9.54
2024-04-24T15:57:24.798Z,9.80
2024-04-24T16:07:26.668Z,10.05
2024-04-24T16:17:28.830Z,10.43
2024-04-24T16:27:30.808Z,10.55
2024-04-24T16:37:32.785Z,10.35
2024-04-24T16:47:35.002Z,10.05
2024-04-24T16:57:38.047Z,9.95
2024-04-24T17:07:40.038Z,10.03
2024-04-24T17:17:42.090Z,9.93
2024-04-24T17:27:44.147Z,9.77
2024-04-24T17:37:45.998Z,9.68
2024-04-24T17:47:47.904Z,9.67
2024-04-24T17:57:51.181Z,9.53
2024-04-24T18:07:53.534Z,9.47
2024-04-24T18:17:55.987Z,9.40
2024-04-24T18:27:58.641Z,9.21
2024-04-24T18:38:00.972Z,9.00
2024-04-24T18:48:06.992Z,8.70
2024-04-24T18:58:10.901Z,8.61
2024-04-24T19:08:12.708Z,8.35
2024-04-24T19:18:15.901Z,8.34
2024-04-24T19:28:18.230Z,8.21
2024-04-24T19:38:24.244Z,8.04
2024-04-24T19:48:26.336Z,7.84
2024-04-24T19:58:28.254Z,7.78
2024-04-24T20:08:31.538Z,7.95
2024-04-24T20:18:35.607Z,7.86
2024-04-24T20:28:37.587Z,7.88
2024-04-24T20:38:39.613Z,7.63
2024-04-24T20:48:41.781Z,7.37
2024-04-24T20:58:47.050Z,7.52
2024-04-24T21:08:51.451Z,7.45
2024-04-24T21:18:54.047Z,7.45
2024-04-24T21:28:56.232Z,7.50
2024-04-24T21:38:58.973Z,7.33
2024-04-24T21:49:00.824Z,7.01
2024-04-24T21:59:02.865Z,7.43
2024-04-24T22:09:05.204Z,7.38
2024-04-24T22:29:09.368Z,7.50
2024-04-24T22:39:11.264Z,7.27
2024-04-24T22:49:13.110Z,7.31
2024-04-24T22:59:15.043Z,7.23
2024-04-24T23:09:17.061Z,7.28
2024-04-24T23:19:21.124Z,7.03
2024-04-24T23:29:23.289Z,7.02
2024-04-24T23:39:25.061Z,6.91
2024-04-24T23:49:26.933Z,6.94
2024-04-24T23:59:28.866Z,6.89
